Time;durP1;ratioP1;P1;durP2;ratioP2;P2;SDS_P1;SDS_P2;PMS_P1;PMS_P2;Temp;Humidity;BMP_temperature;BMP_pressure;BME280_temperature;BME280_humidity;BME280_pressure;Samples;Min_cycle;Max_cycle;Signal;HPM_P1;HPM_P2
2022/11/02 05:02:45;;;;;;;4.10;3.50;;;8.20;99.90;;;;;;4991882;28;20471;-73
2022/11/02 05:05:12;;;;;;;4.17;3.77;;;8.20;99.90;;;;;;4993207;28;20471;-73
2022/11/02 05:07:39;;;;;;;4.33;3.93;;;8.20;99.90;;;;;;4993127;28;20459;-73
2022/11/02 05:10:07;;;;;;;4.73;4.10;;;8.20;99.90;;;;;;4993668;28;20495;-73
2022/11/02 05:12:34;;;;;;;7.50;4.70;;;8.20;99.90;;;;;;4993515;28;21011;-73
2022/11/02 05:15:00;;;;;;;7.57;4.20;;;8.30;99.90;;;;;;4994075;28;20455;-73
2022/11/02 05:17:27;;;;;;;9.63;4.50;;;8.30;99.90;;;;;;4993391;28;20455;-73
2022/11/02 05:19:55;;;;;;;9.63;5.00;;;8.20;99.90;;;;;;4988241;28;20468;-72
2022/11/02 05:22:22;;;;;;;9.40;4.33;;;8.20;99.90;;;;;;4993551;28;20467;-73
2022/11/02 05:24:49;;;;;;;5.57;4.97;;;8.20;99.90;;;;;;4993021;28;20832;-73
2022/11/02 05:27:16;;;;;;;6.53;4.30;;;8.20;99.90;;;;;;4993441;28;20460;-73
2022/11/02 05:29:42;;;;;;;5.37;4.33;;;8.20;99.90;;;;;;4993035;28;20479;-73
2022/11/02 05:32:09;;;;;;;5.20;4.40;;;8.20;99.90;;;;;;4993044;28;20478;-73
2022/11/02 05:34:36;;;;;;;5.40;3.90;;;8.20;99.90;;;;;;4993046;28;20462;-73
2022/11/02 05:37:04;;;;;;;10.30;4.80;;;8.20;99.90;;;;;;4992715;28;20456;-73
2022/11/02 05:39:31;;;;;;;5.57;4.57;;;8.30;99.90;;;;;;4993187;28;20455;-73
2022/11/02 05:41:58;;;;;;;7.33;4.73;;;8.30;99.90;;;;;;4993059;28;20482;-73
2022/11/02 05:44:24;;;;;;;5.10;3.80;;;8.30;99.90;;;;;;4992820;28;20456;-73
2022/11/02 05:46:51;;;;;;;5.03;4.53;;;8.30;99.90;;;;;;4992815;28;20463;-73
2022/11/02 05:49:18;;;;;;;5.20;4.70;;;8.30;99.90;;;;;;4993109;28;20495;-73
2022/11/02 05:51:44;;;;;;;6.30;3.97;;;8.30;99.90;;;;;;4993050;28;20472;-74
2022/11/02 05:54:13;;;;;;;6.53;4.30;;;8.30;99.90;;;;;;4992649;28;20451;-73
2022/11/02 05:56:39;;;;;;;4.77;4.00;;;8.30;99.90;;;;;;4992897;28;20456;-73
2022/11/02 05:59:06;;;;;;;6.47;4.80;;;8.30;99.90;;;;;;4992718;28;20459;-73
2022/11/02 06:01:33;;;;;;;5.73;4.70;;;8.20;99.90;;;;;;4992666;28;20491;-73
2022/11/02 06:04:00;;;;;;;13.57;6.73;;;8.20;99.90;;;;;;4992594;28;20452;-73
2022/11/02 06:06:26;;;;;;;10.87;6.40;;;8.20;99.90;;;;;;4992750;28;20488;-74
2022/11/02 06:08:54;;;;;;;15.10;6.57;;;8.20;99.90;;;;;;4992691;28;20456;-73
2022/11/02 06:11:22;;;;;;;15.50;7.50;;;8.20;99.90;;;;;;4992722;28;20502;-73
2022/11/02 06:13:50;;;;;;;16.07;7.10;;;8.20;99.90;;;;;;4992416;28;20455;-73
2022/11/02 06:16:18;;;;;;;16.57;7.40;;;8.10;99.90;;;;;;4992658;28;20461;-73
2022/11/02 06:18:44;;;;;;;13.60;6.03;;;8.10;99.90;;;;;;4992772;28;20460;-73
2022/11/02 06:21:12;;;;;;;10.70;6.30;;;8.10;99.90;;;;;;4992650;28;20472;-73
2022/11/02 06:23:38;;;;;;;13.37;7.00;;;8.20;99.90;;;;;;4992494;28;20460;-73
2022/11/02 06:26:05;;;;;;;11.13;6.17;;;8.20;99.90;;;;;;4992175;28;20967;-73
2022/11/02 06:28:33;;;;;;;11.40;5.70;;;8.30;99.90;;;;;;4992271;28;20470;-73
2022/11/02 06:31:00;;;;;;;10.10;6.70;;;8.30;99.90;;;;;;4992031;28;20996;-73
2022/11/02 06:33:28;;;;;;;10.30;5.30;;;8.30;99.90;;;;;;4992702;28;20462;-73
2022/11/02 06:35:55;;;;;;;15.97;5.83;;;8.40;99.90;;;;;;4992254;28;20478;-74
2022/11/02 06:38:22;;;;;;;9.87;6.17;;;8.40;99.90;;;;;;4992380;28;20481;-74
2022/11/02 06:40:57;;;;;;;9.90;6.27;;;8.40;99.90;;;;;;4992209;28;20472;-74
2022/11/02 06:43:24;;;;;;;11.00;5.90;;;8.50;99.90;;;;;;4992269;28;20458;-74
2022/11/02 06:45:55;;;;;;;9.23;4.97;;;8.50;99.90;;;;;;4992308;28;20455;-74
2022/11/02 06:48:22;;;;;;;9.37;5.90;;;8.50;99.90;;;;;;4992637;28;20440;-74
2022/11/02 06:50:49;;;;;;;5.70;4.03;;;8.60;99.90;;;;;;4996278;28;20499;-74
2022/11/02 06:53:17;;;;;;;14.90;4.80;;;8.70;99.90;;;;;;4996409;28;20455;-74
2022/11/02 06:55:44;;;;;;;10.07;4.70;;;8.70;99.90;;;;;;4996180;28;20573;-74
2022/11/02 06:58:10;;;;;;;9.90;5.53;;;8.80;99.90;;;;;;4996316;28;20455;-74
2022/11/02 07:00:37;;;;;;;12.23;5.43;;;8.80;99.90;;;;;;4995882;28;21062;-73
2022/11/02 07:03:07;;;;;;;9.93;4.90;;;8.90;99.90;;;;;;4995992;28;20977;-74
2022/11/02 07:05:34;;;;;;;9.13;5.10;;;8.90;99.90;;;;;;4995891;28;20831;-74
2022/11/02 07:08:01;;;;;;;8.80;5.10;;;9.00;99.90;;;;;;4995626;28;20459;-74
2022/11/02 07:10:28;;;;;;;9.43;4.50;;;9.00;99.90;;;;;;4995970;28;20499;-74
2022/11/02 07:12:56;;;;;;;9.97;5.30;;;9.10;99.90;;;;;;4996079;28;20466;-74
2022/11/02 07:15:25;;;;;;;8.53;6.23;;;9.10;99.90;;;;;;4995792;28;20467;-74
2022/11/02 07:17:53;;;;;;;11.83;6.00;;;9.10;99.90;;;;;;4996012;28;20462;-74
2022/11/02 07:20:21;;;;;;;6.67;5.50;;;9.20;99.90;;;;;;4995623;28;20821;-74
2022/11/02 07:22:55;;;;;;;9.10;5.77;;;9.20;99.90;;;;;;4995504;28;21021;-74
2022/11/02 07:25:23;;;;;;;11.03;5.97;;;9.20;99.90;;;;;;4993322;28;20452;-74
2022/11/02 07:27:49;;;;;;;6.73;5.43;;;9.20;99.90;;;;;;4994341;28;20452;-74
2022/11/02 07:30:16;;;;;;;10.23;4.87;;;9.30;99.90;;;;;;4995127;28;20483;-74
2022/11/02 07:32:44;;;;;;;12.97;5.10;;;9.40;99.90;;;;;;4995817;28;20454;-74
2022/11/02 07:35:13;;;;;;;5.10;4.33;;;9.40;99.90;;;;;;4995203;28;20461;-74
2022/11/02 07:37:42;;;;;;;10.40;4.60;;;9.50;99.90;;;;;;4995644;28;20458;-75
2022/11/02 07:40:11;;;;;;;8.20;5.67;;;9.50;99.90;;;;;;4995312;28;20959;-73
2022/11/02 07:42:43;;;;;;;8.77;5.70;;;9.50;99.90;;;;;;4995565;28;20455;-75
2022/11/02 07:45:11;;;;;;;9.60;5.40;;;9.60;99.90;;;;;;4995096;28;20475;-73
2022/11/02 07:47:42;;;;;;;9.03;5.13;;;9.60;99.90;;;;;;4995364;28;20455;-75
2022/11/02 07:50:09;;;;;;;10.27;5.60;;;9.70;99.90;;;;;;4995113;28;20894;-73
2022/11/02 07:52:45;;;;;;;7.60;6.20;;;9.70;99.90;;;;;;4995146;28;20490;-73
2022/11/02 07:55:13;;;;;;;10.90;5.70;;;9.80;99.90;;;;;;4994957;28;20521;-74
2022/11/02 07:57:40;;;;;;;7.33;5.33;;;9.80;99.90;;;;;;4994948;28;20451;-73
2022/11/02 08:00:08;;;;;;;9.03;6.10;;;9.80;99.90;;;;;;4994248;28;20456;-73
2022/11/02 08:02:35;;;;;;;7.97;6.13;;;9.90;99.90;;;;;;4994674;28;20566;-73
2022/11/02 08:05:02;;;;;;;10.83;5.67;;;9.90;99.90;;;;;;4994752;28;20464;-73
2022/11/02 08:07:29;;;;;;;9.17;4.87;;;10.00;99.90;;;;;;4994925;28;20459;-74
2022/11/02 08:09:57;;;;;;;10.20;5.80;;;10.00;99.90;;;;;;4994995;28;20465;-75
2022/11/02 08:12:23;;;;;;;10.97;4.97;;;10.10;99.90;;;;;;4994672;28;20564;-74
2022/11/02 08:14:50;;;;;;;9.53;5.07;;;10.10;99.90;;;;;;4994467;28;20479;-74
2022/11/02 08:17:17;;;;;;;8.57;5.50;;;10.20;99.90;;;;;;4994748;28;20460;-75
2022/11/02 08:19:44;;;;;;;7.40;5.30;;;10.20;99.90;;;;;;4994872;28;20482;-75
2022/11/02 08:22:10;;;;;;;11.17;5.83;;;10.20;99.90;;;;;;4994648;28;20490;-74
2022/11/02 08:24:37;;;;;;;10.70;5.13;;;10.30;99.90;;;;;;4994676;28;20482;-74
2022/11/02 08:27:05;;;;;;;14.50;6.30;;;10.40;99.90;;;;;;4994666;28;20459;-74
2022/11/02 08:29:33;;;;;;;10.87;5.60;;;10.50;99.90;;;;;;4994750;28;20455;-74
2022/11/02 08:32:00;;;;;;;8.17;5.63;;;10.50;99.90;;;;;;4994483;28;20503;-74
2022/11/02 08:34:27;;;;;;;9.60;4.77;;;10.60;99.90;;;;;;4994168;28;20447;-74
2022/11/02 08:36:53;;;;;;;9.00;5.30;;;10.60;99.90;;;;;;4994651;28;20451;-74
2022/11/02 08:39:20;;;;;;;8.53;4.90;;;10.80;99.90;;;;;;4994492;28;20459;-74
2022/11/02 08:41:47;;;;;;;10.97;5.00;;;10.90;99.90;;;;;;4994237;28;20479;-74
2022/11/02 08:44:15;;;;;;;10.27;4.70;;;10.90;99.90;;;;;;4994141;28;20458;-74
2022/11/02 08:46:42;;;;;;;11.40;4.40;;;10.90;99.90;;;;;;4994340;28;20460;-74
2022/11/02 08:49:08;;;;;;;11.47;4.57;;;11.00;99.90;;;;;;4994244;28;20460;-74
2022/11/02 08:51:35;;;;;;;7.73;4.50;;;11.10;99.90;;;;;;4993886;28;20491;-74
2022/11/02 08:54:02;;;;;;;12.57;6.20;;;11.20;99.90;;;;;;4994213;28;20822;-74
2022/11/02 08:56:29;;;;;;;9.13;5.07;;;11.30;99.90;;;;;;4993753;28;20455;-74
2022/11/02 08:58:56;;;;;;;16.20;5.70;;;11.40;99.90;;;;;;4994108;28;20455;-74
2022/11/02 09:01:24;;;;;;;8.87;4.93;;;11.50;99.90;;;;;;4993609;28;20876;-74
2022/11/02 09:03:51;;;;;;;10.43;5.10;;;11.60;99.90;;;;;;4994008;28;20456;-74
2022/11/02 09:06:18;;;;;;;9.63;5.20;;;11.60;99.90;;;;;;4993459;28;20550;-74
2022/11/02 09:08:44;;;;;;;10.93;4.43;;;11.70;99.90;;;;;;4993730;28;20462;-74
2022/11/02 09:11:11;;;;;;;9.77;5.10;;;11.70;99.90;;;;;;4992857;28;20499;-74
2022/11/02 09:13:39;;;;;;;8.30;4.20;;;11.80;99.90;;;;;;4993584;28;20497;-74
2022/11/02 09:16:06;;;;;;;7.47;3.90;;;12.00;99.90;;;;;;4993435;28;20460;-74
2022/11/02 09:18:34;;;;;;;9.63;4.00;;;12.00;99.90;;;;;;4993686;28;20462;-74
2022/11/02 09:21:02;;;;;;;9.53;4.10;;;12.00;99.90;;;;;;4993322;28;21003;-75
2022/11/02 09:23:28;;;;;;;8.00;4.33;;;12.10;99.90;;;;;;4993453;28;20458;-75
2022/11/02 09:25:55;;;;;;;10.10;4.43;;;12.20;99.90;;;;;;4993509;28;20455;-74
2022/11/02 09:28:22;;;;;;;6.90;3.70;;;12.20;99.90;;;;;;4993407;28;20459;-74
2022/11/02 09:30:49;;;;;;;8.23;4.30;;;12.20;99.90;;;;;;4993375;28;20498;-74
2022/11/02 09:33:15;;;;;;;7.47;3.67;;;12.30;99.90;;;;;;4993250;28;20460;-74
2022/11/02 09:35:46;;;;;;;13.03;3.97;;;12.30;99.90;;;;;;4993044;28;20535;-74
2022/11/02 09:38:13;;;;;;;11.53;4.17;;;12.30;99.90;;;;;;4993395;28;20450;-75
2022/11/02 09:40:44;;;;;;;11.37;3.67;;;12.30;99.90;;;;;;4993154;28;20479;-74
2022/11/02 09:43:20;;;;;;;9.43;4.20;;;12.40;99.90;;;;;;4993107;28;20998;-75
2022/11/02 09:45:55;;;;;;;9.93;3.43;;;12.40;99.90;;;;;;4992968;28;20463;-75
2022/11/02 09:48:28;;;;;;;13.17;4.50;;;12.50;99.90;;;;;;4993036;28;20443;-75
2022/11/02 09:51:04;;;;;;;9.43;3.53;;;12.50;99.90;;;;;;4993068;28;20569;-74
2022/11/02 09:53:41;;;;;;;14.57;3.53;;;12.60;99.90;;;;;;4992975;28;20916;-74
2022/11/02 09:56:10;;;;;;;5.73;2.70;;;12.60;99.90;;;;;;4992837;28;20451;-74
2022/11/02 09:58:39;;;;;;;10.57;3.80;;;12.60;99.90;;;;;;4992967;28;20469;-74
2022/11/02 10:01:19;;;;;;;12.80;4.23;;;12.70;99.90;;;;;;4992627;28;20482;-75
2022/11/02 10:04:14;;;;;;;12.37;4.50;;;12.80;99.90;;;;;;4992690;28;20952;-74
2022/11/02 10:06:51;;;;;;;14.97;3.40;;;12.80;99.90;;;;;;4992995;28;20455;-74
2022/11/02 10:09:24;;;;;;;9.57;3.80;;;12.80;99.90;;;;;;4992713;28;20440;-74
2022/11/02 10:12:00;;;;;;;12.63;4.20;;;12.90;99.90;;;;;;4992754;28;20534;-74
2022/11/02 10:14:31;;;;;;;8.23;3.50;;;13.00;99.90;;;;;;4992646;28;20459;-74
2022/11/02 10:17:04;;;;;;;12.90;4.37;;;13.00;99.90;;;;;;4992611;28;21174;-74
2022/11/02 10:19:34;;;;;;;11.90;4.10;;;13.10;99.90;;;;;;4992785;28;20498;-74
2022/11/02 10:22:03;;;;;;;9.53;3.63;;;13.10;99.90;;;;;;4992374;28;20990;-74
2022/11/02 10:24:35;;;;;;;9.27;3.73;;;13.10;99.90;;;;;;4992318;28;20460;-74
2022/11/02 10:27:06;;;;;;;7.03;3.27;;;13.20;99.90;;;;;;4992467;28;20439;-74
2022/11/02 10:29:46;;;;;;;8.70;3.50;;;13.20;99.90;;;;;;4992724;28;20458;-74
2022/11/02 10:32:14;;;;;;;7.93;3.20;;;13.30;99.90;;;;;;4992138;28;20994;-75
2022/11/02 10:34:45;;;;;;;8.60;3.10;;;13.40;99.90;;;;;;4992285;28;20459;-74
2022/11/02 10:37:32;;;;;;;10.83;3.47;;;13.30;99.90;;;;;;4992607;28;20570;-74
2022/11/02 10:40:08;;;;;;;8.50;2.50;;;13.40;99.90;;;;;;4997012;28;20446;-74
2022/11/02 10:42:58;;;;;;;9.47;2.70;;;13.40;99.90;;;;;;4992121;28;20475;-74
2022/11/02 10:45:52;;;;;;;11.03;2.73;;;13.40;99.90;;;;;;4992237;28;20463;-74
2022/11/02 10:48:33;;;;;;;11.83;3.30;;;13.50;99.90;;;;;;4982274;28;20464;-74
2022/11/02 10:51:08;;;;;;;6.97;2.57;;;13.60;99.90;;;;;;4992078;28;20491;-74
2022/11/02 10:53:39;;;;;;;11.50;3.20;;;13.60;99.90;;;;;;4992496;28;20455;-74
2022/11/02 10:56:14;;;;;;;8.17;2.93;;;13.60;99.90;;;;;;4992353;28;20432;-74
2022/11/02 10:58:45;;;;;;;10.77;2.60;;;13.70;99.90;;;;;;4992486;28;20447;-74
2022/11/02 11:01:13;;;;;;;16.67;3.20;;;13.70;99.90;;;;;;4992027;28;20540;-74
2022/11/02 11:03:54;;;;;;;9.07;2.20;;;13.80;99.90;;;;;;4992102;28;21251;-74
2022/11/02 11:06:22;;;;;;;14.67;2.40;;;13.80;99.90;;;;;;4992064;28;20467;-74
2022/11/02 11:08:52;;;;;;;8.03;2.27;;;13.90;99.90;;;;;;4992401;28;20464;-74
2022/11/02 11:11:22;;;;;;;9.17;1.90;;;14.00;99.90;;;;;;4992195;28;20487;-74
2022/11/02 11:13:56;;;;;;;11.23;2.53;;;14.10;99.90;;;;;;4992312;28;20940;-75
2022/11/02 11:16:38;;;;;;;15.23;3.23;;;14.30;99.90;;;;;;4992263;28;20446;-74
2022/11/02 11:19:19;;;;;;;14.97;2.77;;;14.40;99.90;;;;;;4992098;28;20450;-75
2022/11/02 11:21:48;;;;;;;5.97;2.40;;;14.50;99.90;;;;;;4992127;28;20514;-75
2022/11/02 11:24:27;;;;;;;14.40;3.00;;;14.50;99.90;;;;;;4991587;28;20514;-75
2022/11/02 11:27:03;;;;;;;9.53;2.30;;;14.70;99.90;;;;;;4992411;28;20447;-75
2022/11/02 11:29:32;;;;;;;9.53;2.30;;;14.70;99.90;;;;;;4992130;28;20455;-74
2022/11/02 11:32:00;;;;;;;9.37;2.40;;;14.80;99.90;;;;;;4992042;28;20491;-74
2022/11/02 11:34:30;;;;;;;13.93;2.50;;;14.90;99.90;;;;;;4991644;28;20466;-75
2022/11/02 11:37:06;;;;;;;7.70;2.27;;;14.90;99.90;;;;;;4995614;28;20462;-74
2022/11/02 11:39:35;;;;;;;9.40;2.43;;;14.90;99.90;;;;;;4995448;28;20502;-74
2022/11/02 11:42:04;;;;;;;6.27;2.37;;;14.90;99.90;;;;;;4995475;28;20475;-74
2022/11/02 11:44:32;;;;;;;9.77;2.60;;;14.90;99.90;;;;;;4995042;28;20462;-74
2022/11/02 11:46:59;;;;;;;10.90;2.47;;;15.00;99.90;;;;;;4995192;28;20455;-72
2022/11/02 11:49:30;;;;;;;10.43;2.57;;;15.10;99.90;;;;;;4995068;28;20554;-74
2022/11/02 11:52:00;;;;;;;15.53;2.80;;;15.30;99.90;;;;;;4995197;28;20502;-75
2022/11/02 11:54:28;;;;;;;12.70;2.37;;;15.40;99.90;;;;;;4995141;28;20460;-75
2022/11/02 11:56:57;;;;;;;12.80;2.43;;;15.60;99.90;;;;;;4995185;28;20459;-75
2022/11/02 11:59:30;;;;;;;5.53;2.13;;;15.70;99.90;;;;;;4994943;28;20979;-75
2022/11/02 12:01:59;;;;;;;11.13;2.53;;;15.60;99.90;;;;;;4994739;28;20488;-75
2022/11/02 12:04:31;;;;;;;9.80;2.10;;;15.80;99.90;;;;;;4994917;28;20455;-75
2022/11/02 12:07:25;;;;;;;12.37;2.60;;;15.90;99.90;;;;;;4994831;28;20466;-75
2022/11/02 12:10:01;;;;;;;11.77;2.67;;;16.00;99.90;;;;;;4995222;28;20886;-74
2022/11/02 12:12:42;;;;;;;9.33;2.43;;;16.20;99.90;;;;;;4994548;28;20498;-75
2022/11/02 12:15:17;;;;;;;8.73;2.33;;;16.40;99.90;;;;;;4994463;28;20475;-75
2022/11/02 12:17:55;;;;;;;10.37;2.20;;;16.60;99.90;;;;;;4994884;28;20452;-75
2022/11/02 12:20:41;;;;;;;10.40;2.97;;;16.80;99.90;;;;;;4994829;28;20436;-75
2022/11/02 12:23:23;;;;;;;9.67;2.10;;;17.00;99.90;;;;;;4994816;28;20455;-75
2022/11/02 12:25:56;;;;;;;12.10;2.30;;;17.10;99.90;;;;;;4994630;28;20440;-75
2022/11/02 12:28:40;;;;;;;8.60;2.20;;;17.30;99.90;;;;;;4994464;28;20440;-75
2022/11/02 12:31:19;;;;;;;10.20;2.67;;;17.40;99.90;;;;;;4994390;28;20479;-75
2022/11/02 12:34:01;;;;;;;14.57;2.33;;;17.60;99.90;;;;;;4994691;28;20450;-75
2022/11/02 12:36:42;;;;;;;10.23;2.87;;;17.70;99.90;;;;;;4994308;28;20916;-75
2022/11/02 12:39:14;;;;;;;13.97;2.53;;;17.60;99.90;;;;;;4994251;28;20464;-75
2022/11/02 12:41:55;;;;;;;8.40;2.10;;;17.60;99.90;;;;;;4994374;28;20479;-75
2022/11/02 12:44:53;;;;;;;9.57;2.20;;;17.70;99.90;;;;;;4994000;28;20452;-75
2022/11/02 12:47:34;;;;;;;10.47;2.03;;;17.80;99.90;;;;;;4981608;28;20975;-75
2022/11/02 12:50:12;;;;;;;7.73;2.33;;;17.80;99.90;;;;;;4994034;28;20951;-74
2022/11/02 12:52:51;;;;;;;6.77;2.30;;;17.90;99.90;;;;;;4994257;28;20479;-74
2022/11/02 12:55:21;;;;;;;13.40;2.23;;;18.00;99.90;;;;;;4993772;28;20542;-75
2022/11/02 12:57:48;;;;;;;8.97;2.33;;;18.00;99.90;;;;;;4994199;28;20514;-75
2022/11/02 13:00:23;;;;;;;11.67;2.20;;;18.10;99.90;;;;;;4993540;28;20460;-75
2022/11/02 13:02:57;;;;;;;9.10;2.17;;;18.10;99.90;;;;;;4994142;28;20459;-75
2022/11/02 13:05:29;;;;;;;7.40;2.07;;;18.00;99.90;;;;;;4993463;28;20455;-75
2022/11/02 13:08:06;;;;;;;8.53;2.30;;;18.00;99.90;;;;;;4993999;28;20439;-75
2022/11/02 13:10:40;;;;;;;7.60;2.20;;;18.20;99.90;;;;;;4993373;28;20482;-75
2022/11/02 13:13:13;;;;;;;9.37;2.20;;;18.30;99.90;;;;;;4993774;28;20492;-75
2022/11/02 13:15:45;;;;;;;9.20;2.03;;;18.20;99.90;;;;;;4993434;28;20456;-75
2022/11/02 13:18:18;;;;;;;6.03;2.40;;;18.10;99.90;;;;;;4993900;28;20444;-75
2022/11/02 13:20:50;;;;;;;10.60;2.70;;;18.20;99.90;;;;;;4993375;28;20486;-75
2022/11/02 13:23:26;;;;;;;9.40;2.10;;;18.30;99.90;;;;;;4993399;28;21196;-75
2022/11/02 13:25:57;;;;;;;12.50;2.37;;;18.20;99.90;;;;;;4993479;28;20447;-75
2022/11/02 13:28:33;;;;;;;10.50;2.17;;;18.20;99.90;;;;;;4993592;28;20444;-75
2022/11/02 13:31:03;;;;;;;9.43;2.30;;;18.10;99.90;;;;;;4993225;28;20483;-75
2022/11/02 13:33:39;;;;;;;6.80;2.00;;;18.20;99.90;;;;;;4992930;28;20487;-75
2022/11/02 13:36:06;;;;;;;9.80;2.10;;;18.10;99.90;;;;;;4992972;28;20822;-75
2022/11/02 13:38:38;;;;;;;9.00;2.17;;;18.00;99.90;;;;;;4993087;28;20455;-75
2022/11/02 13:41:24;;;;;;;8.90;2.20;;;18.00;99.90;;;;;;4993316;28;20476;-74
2022/11/02 13:44:15;;;;;;;9.37;2.23;;;18.00;99.90;;;;;;4992875;28;20440;-75
2022/11/02 13:46:56;;;;;;;8.23;2.63;;;18.00;99.90;;;;;;4993312;28;20443;-75
2022/11/02 13:49:28;;;;;;;11.53;2.20;;;17.90;99.90;;;;;;4992960;28;20944;-74
2022/11/02 13:52:00;;;;;;;9.20;2.10;;;17.90;99.90;;;;;;4993134;28;20510;-75
2022/11/02 13:54:32;;;;;;;11.07;1.90;;;17.80;99.90;;;;;;4992398;28;20505;-75
2022/11/02 13:56:59;;;;;;;7.37;2.47;;;17.80;99.90;;;;;;4992858;28;21114;-75
2022/11/02 13:59:29;;;;;;;12.87;2.10;;;17.70;99.90;;;;;;4992701;28;20451;-75
2022/11/02 14:01:59;;;;;;;7.77;2.50;;;17.60;99.90;;;;;;4992867;28;20911;-75
2022/11/02 14:04:29;;;;;;;5.90;1.80;;;17.60;99.90;;;;;;4992990;28;20450;-75
2022/11/02 14:06:59;;;;;;;4.47;1.73;;;17.60;99.90;;;;;;4992585;28;20464;-75
2022/11/02 14:09:30;;;;;;;7.37;2.20;;;17.50;99.90;;;;;;4992888;28;20559;-75
2022/11/02 14:12:42;;;;;;;7.83;2.43;;;17.50;99.90;;;;;;4992867;28;20503;-75
2022/11/02 14:15:48;;;;;;;7.03;2.20;;;17.40;99.90;;;;;;4931193;29;20490;-75
2022/11/02 14:18:32;;;;;;;8.30;2.33;;;17.40;99.90;;;;;;4992756;28;20458;-75
2022/11/02 14:21:19;;;;;;;8.63;2.23;;;17.40;99.90;;;;;;4992521;28;20986;-75
2022/11/02 14:23:48;;;;;;;10.30;2.53;;;17.30;99.90;;;;;;4992513;28;20475;-75
2022/11/02 14:26:33;;;;;;;7.50;2.30;;;17.30;99.90;;;;;;4992509;28;20478;-74
2022/11/02 14:29:03;;;;;;;11.07;2.80;;;17.40;99.90;;;;;;4992955;28;20444;-75
2022/11/02 14:31:59;;;;;;;4.97;1.90;;;17.40;99.90;;;;;;4992331;28;20476;-75
2022/11/02 14:34:55;;;;;;;9.20;2.53;;;17.40;99.90;;;;;;4992331;28;20456;-75
2022/11/02 14:37:57;;;;;;;8.47;2.50;;;17.40;99.90;;;;;;4986322;28;20455;-75
2022/11/02 14:40:30;;;;;;;7.60;2.50;;;17.50;99.90;;;;;;4992540;28;20459;-75
2022/11/02 14:43:13;;;;;;;8.33;2.67;;;17.50;99.90;;;;;;4992521;28;20451;-75
2022/11/02 14:45:54;;;;;;;6.63;2.13;;;17.60;99.90;;;;;;4992145;28;20787;-75
2022/11/02 14:48:21;;;;;;;6.50;2.23;;;17.70;99.90;;;;;;4992213;28;20839;-75
2022/11/02 14:51:00;;;;;;;7.77;2.20;;;17.90;99.90;;;;;;4992355;28;20475;-75
2022/11/02 14:53:31;;;;;;;6.70;2.20;;;18.10;99.90;;;;;;4992466;28;20487;-75
2022/11/02 14:56:00;;;;;;;6.90;2.00;;;18.10;99.90;;;;;;4992152;28;20495;-75
2022/11/02 14:58:33;;;;;;;12.23;3.83;;;18.20;99.90;;;;;;4992228;28;20807;-75
2022/11/02 15:01:02;;;;;;;10.27;2.23;;;18.10;99.90;;;;;;4991762;28;20996;-75
2022/11/02 15:03:34;;;;;;;8.33;1.93;;;18.10;99.90;;;;;;4992308;28;20462;-75
2022/11/02 15:06:03;;;;;;;11.97;2.63;;;18.00;99.90;;;;;;4991933;28;20444;-75
2022/11/02 15:08:33;;;;;;;7.53;2.37;;;17.90;99.90;;;;;;4991939;28;20830;-75
2022/11/02 15:11:42;;;;;;;15.90;2.33;;;17.80;99.90;;;;;;4994495;28;20490;-75
2022/11/02 15:14:51;;;;;;;6.57;2.63;;;17.60;99.90;;;;;;4990577;28;20467;-74
2022/11/02 15:17:54;;;;;;;11.23;3.70;;;17.40;99.90;;;;;;4995847;28;20462;-75
2022/11/02 15:20:27;;;;;;;6.97;2.30;;;17.30;99.90;;;;;;4995929;28;20455;-75
2022/11/02 15:22:58;;;;;;;7.67;2.60;;;17.10;99.90;;;;;;4995882;28;20498;-75
2022/11/02 15:25:29;;;;;;;15.67;3.03;;;17.00;99.90;;;;;;4995599;28;20441;-74
2022/11/02 15:28:03;;;;;;;11.03;2.80;;;16.90;99.90;;;;;;4995467;28;20466;-74
2022/11/02 15:30:32;;;;;;;9.47;2.60;;;16.80;99.90;;;;;;4995828;28;20439;-75
2022/11/02 15:33:02;;;;;;;9.97;2.93;;;16.70;99.90;;;;;;4995575;28;20495;-75
2022/11/02 15:35:32;;;;;;;10.33;2.33;;;16.70;99.90;;;;;;4995765;28;20454;-74
2022/11/02 15:38:01;;;;;;;9.13;2.93;;;16.60;99.90;;;;;;4995418;28;20443;-75
2022/11/02 15:40:33;;;;;;;7.57;2.40;;;16.60;99.90;;;;;;4995022;28;20459;-75
2022/11/02 15:43:07;;;;;;;9.03;3.00;;;16.50;99.90;;;;;;4995504;28;20436;-75
2022/11/02 15:45:51;;;;;;;8.23;2.47;;;16.40;99.90;;;;;;4995164;28;20451;-75
2022/11/02 15:48:40;;;;;;;8.37;2.40;;;16.30;99.90;;;;;;4995243;28;20913;-75
2022/11/02 15:51:16;;;;;;;10.37;3.27;;;16.20;99.90;;;;;;4995192;28;20482;-75
2022/11/02 15:53:55;;;;;;;8.50;2.63;;;16.10;99.90;;;;;;4995252;28;20706;-75
2022/11/02 15:56:41;;;;;;;7.97;2.57;;;16.00;99.90;;;;;;4994853;28;20948;-75
2022/11/02 15:59:50;;;;;;;11.20;2.43;;;15.90;99.90;;;;;;4982484;28;20464;-75
2022/11/02 16:02:30;;;;;;;10.13;2.80;;;15.80;99.90;;;;;;4934520;29;20478;-75
2022/11/02 16:05:00;;;;;;;9.83;3.07;;;15.60;99.90;;;;;;4934454;29;20441;-75
2022/11/02 16:07:28;;;;;;;11.10;3.80;;;15.60;99.90;;;;;;4971375;28;20456;-75
2022/11/02 16:09:54;;;;;;;14.90;3.27;;;15.40;99.90;;;;;;4994871;28;20471;-75
2022/11/02 16:12:22;;;;;;;7.37;3.03;;;15.30;99.90;;;;;;4994707;28;20491;-75
2022/11/02 16:14:56;;;;;;;16.80;3.80;;;15.30;99.90;;;;;;4994629;28;20815;-75
2022/11/02 16:17:25;;;;;;;12.97;3.63;;;15.20;99.90;;;;;;4994987;28;20432;-75
2022/11/02 16:20:09;;;;;;;12.10;5.60;;;15.10;99.90;;;;;;4994673;28;20456;-75
2022/11/02 16:22:37;;;;;;;9.97;4.43;;;15.00;99.90;;;;;;4994234;28;21201;-75
2022/11/02 16:25:11;;;;;;;12.90;5.03;;;14.90;99.90;;;;;;4994222;28;21028;-75
2022/11/02 16:27:38;;;;;;;9.23;3.70;;;14.90;99.90;;;;;;4994478;28;20441;-75
2022/11/02 16:30:06;;;;;;;12.27;4.20;;;14.80;99.90;;;;;;4994456;28;20460;-75
2022/11/02 16:32:33;;;;;;;14.63;4.57;;;14.70;99.90;;;;;;4994138;28;20492;-73
2022/11/02 16:35:01;;;;;;;16.40;4.70;;;14.60;99.90;;;;;;4994312;28;20466;-74
2022/11/02 16:37:28;;;;;;;13.63;4.60;;;14.50;99.90;;;;;;4994597;28;20456;-74
2022/11/02 16:39:55;;;;;;;10.33;3.90;;;14.40;99.90;;;;;;4994287;28;20452;-73
2022/11/02 16:42:24;;;;;;;19.10;6.60;;;14.30;99.90;;;;;;4994320;28;20472;-74
2022/11/02 16:44:56;;;;;;;11.67;6.40;;;14.30;99.90;;;;;;4993927;28;20460;-74
2022/11/02 16:47:36;;;;;;;11.83;6.17;;;14.20;99.90;;;;;;4993972;28;20471;-73
2022/11/02 16:50:17;;;;;;;20.50;6.30;;;14.10;99.90;;;;;;4994266;28;20469;-74
2022/11/02 16:52:54;;;;;;;14.37;7.33;;;14.10;99.90;;;;;;4993979;28;20478;-74
2022/11/02 16:55:37;;;;;;;11.93;7.33;;;14.00;99.90;;;;;;4994054;28;20436;-74
2022/11/02 16:58:07;;;;;;;15.63;8.23;;;13.90;99.90;;;;;;4993844;28;20924;-74
2022/11/02 17:00:34;;;;;;;16.43;8.53;;;13.80;99.90;;;;;;4993862;28;20497;-74
2022/11/02 17:03:08;;;;;;;16.33;8.07;;;13.70;99.90;;;;;;4994002;28;20447;-74
2022/11/02 17:05:40;;;;;;;18.67;7.40;;;13.60;99.90;;;;;;4993620;28;20455;-74
2022/11/02 17:08:18;;;;;;;12.77;5.73;;;13.50;99.90;;;;;;4993845;28;20448;-74
2022/11/02 17:10:45;;;;;;;14.67;5.20;;;13.50;99.90;;;;;;4993629;28;20479;-74
2022/11/02 17:13:16;;;;;;;19.77;5.80;;;13.50;99.90;;;;;;4993827;28;20498;-73
2022/11/02 17:15:49;;;;;;;14.93;6.43;;;13.40;99.90;;;;;;5008118;23;20507;-73
2022/11/02 17:18:26;;;;;;;12.07;5.90;;;13.30;99.90;;;;;;4985183;28;20455;-73
2022/11/02 17:21:26;;;;;;;14.60;5.73;;;13.30;99.90;;;;;;4993518;28;20826;-73
2022/11/02 17:23:54;;;;;;;11.80;5.57;;;13.20;99.90;;;;;;4993266;28;20451;-72
2022/11/02 17:26:30;;;;;;;30.63;16.30;;;13.10;99.90;;;;;;4992904;28;20448;-73
2022/11/02 17:28:58;;;;;;;21.63;10.17;;;13.00;99.90;;;;;;4993167;28;20458;-73
2022/11/02 17:31:27;;;;;;;18.90;9.07;;;13.00;99.90;;;;;;4993410;28;20459;-72
2022/11/02 17:33:56;;;;;;;14.03;9.20;;;12.90;99.90;;;;;;4992493;28;20494;-72
2022/11/02 17:36:25;;;;;;;18.03;8.37;;;12.90;99.90;;;;;;4993137;28;20456;-71
2022/11/02 17:38:54;;;;;;;10.30;7.10;;;12.80;99.90;;;;;;4993074;28;20562;-71
2022/11/02 17:44:14;;;;;;;13.30;8.50;;;12.70;99.90;;;;;;4992768;28;20450;-71
2022/11/02 17:46:41;;;;;;;14.93;8.50;;;12.70;99.90;;;;;;4992912;28;20986;-71
2022/11/02 17:49:08;;;;;;;19.13;8.10;;;12.60;99.90;;;;;;4993216;28;20455;-71
2022/11/02 17:51:36;;;;;;;13.67;7.23;;;12.50;99.90;;;;;;4992737;28;20977;-71
2022/11/02 17:54:04;;;;;;;19.10;8.87;;;12.40;99.90;;;;;;4992177;28;20499;-71
2022/11/02 17:56:31;;;;;;;12.63;5.50;;;12.30;99.90;;;;;;4993048;28;20463;-73
2022/11/02 17:58:58;;;;;;;13.13;6.10;;;12.30;99.90;;;;;;4993396;28;20451;-71
2022/11/02 18:01:25;;;;;;;12.63;6.33;;;12.20;99.90;;;;;;4993065;28;20464;-71
2022/11/02 18:03:51;;;;;;;22.93;5.83;;;12.20;99.90;;;;;;4992550;28;20940;-73
2022/11/02 18:06:18;;;;;;;12.70;5.53;;;12.10;99.90;;;;;;4992362;28;20459;-71
2022/11/02 18:11:31;;;;;;;16.07;5.67;;;12.00;99.90;;;;;;4992603;28;20420;-71
2022/11/02 18:13:57;;;;;;;10.57;5.30;;;12.00;99.90;;;;;;4992074;28;20495;-73
2022/11/02 18:16:24;;;;;;;15.27;4.73;;;11.90;99.90;;;;;;4992333;28;20522;-72
2022/11/02 18:18:51;;;;;;;11.90;4.90;;;11.80;99.90;;;;;;4992201;28;20463;-71